East Pond Data 2008
Notes
Date6/24/2008
LocationColby B
InvestigatorDelia, Zac, brian
Windcalm
Sky
Secchi6.7meters
Notes
Day Number175
- DepthDaynumberTimeDate% O2 SatDateTimeTemperatureConductivityOxygenPressureDepthpHpH mVORPFluor.Bottom DepthLatitudeLongitudeGPS TimeTrue HeadingWater SpeedWater TempEastingNorthing
-3.66E-011756.476/24/2008#NAME?1.59E+093.88E+022.25E+016.70E+018.04E+001.46E+013.66E-015.99E+002.41E+011.57E+025.00E-016.40E+004.46E+01-6.98E+014.05E+040.00E+000.00E+001.95E+014.38E+054.94E+06
-3.57E-011756.556/24/2008#NAME?1.59E+093.93E+022.26E+017.00E+017.96E+001.46E+013.57E-015.99E+002.41E+011.56E+027.00E-016.30E+004.46E+01-6.98E+014.07E+040.00E+000.00E+001.97E+014.38E+054.94E+06
-3.58E-011756.636/24/2008#NAME?1.59E+093.98E+022.26E+015.60E+018.01E+001.46E+013.58E-016.04E+002.22E+011.56E+023.00E-016.40E+004.46E+01-6.98E+014.08E+040.00E+000.00E+001.97E+014.38E+054.94E+06
-3.60E-011756.726/24/2008#NAME?1.59E+094.03E+022.25E+016.90E+017.89E+001.46E+013.60E-016.00E+002.38E+011.57E+021.00E-016.40E+004.46E+01-6.98E+014.08E+040.00E+000.00E+001.97E+014.38E+054.94E+06
-4.22E-011756.806/24/2008#NAME?1.59E+094.08E+022.25E+017.00E+017.92E+001.47E+014.22E-016.01E+002.34E+011.57E+022.00E-016.40E+004.46E+01-6.98E+014.08E+040.00E+000.00E+001.97E+014.38E+054.94E+06
-4.87E-011756.886/24/2008#NAME?1.59E+094.13E+022.26E+017.00E+017.92E+001.48E+014.87E-016.06E+002.12E+011.56E+021.00E-016.40E+004.46E+01-6.98E+014.08E+040.00E+000.00E+001.97E+014.38E+054.94E+06
-5.54E-011756.976/24/2008#NAME?1.59E+094.18E+022.25E+016.30E+017.87E+001.49E+015.54E-016.06E+002.09E+011.56E+02-4.00E-016.40E+004.46E+01-6.98E+014.08E+040.00E+000.00E+001.97E+014.38E+054.94E+06
-6.07E-011757.056/24/2008#NAME?1.59E+094.23E+022.24E+016.60E+017.95E+001.49E+016.07E-016.04E+002.22E+011.56E+023.00E-016.40E+004.46E+01-6.98E+014.08E+040.00E+000.00E+001.97E+014.38E+054.94E+06
-6.54E-011757.136/24/2008#NAME?1.59E+094.28E+022.23E+016.80E+017.86E+001.50E+016.54E-016.09E+001.97E+011.56E+021.30E+006.30E+004.46E+01-6.98E+014.08E+040.00E+000.00E+001.97E+014.38E+054.94E+06
-6.94E-011757.226/24/2008#NAME?1.59E+094.33E+022.22E+016.60E+017.82E+001.51E+016.94E-016.13E+001.79E+011.55E+026.00E-016.50E+004.46E+01-6.98E+014.08E+040.00E+000.00E+001.97E+014.38E+054.94E+06
-7.59E-011757.306/24/2008#NAME?1.59E+094.38E+022.21E+016.80E+017.83E+001.52E+017.59E-016.14E+001.74E+011.55E+026.00E-016.40E+004.46E+01-6.98E+014.08E+040.00E+000.00E+001.97E+014.38E+054.94E+06
-8.21E-011757.386/24/2008#NAME?1.59E+094.43E+022.20E+016.50E+017.82E+001.52E+018.21E-016.13E+001.79E+011.55E+024.00E-016.30E+004.46E+01-6.98E+014.08E+040.00E+000.00E+001.97E+014.38E+054.94E+06
-8.72E-011757.476/24/2008#NAME?1.59E+094.48E+022.18E+016.90E+017.80E+001.53E+018.72E-016.13E+001.77E+011.55E+025.00E-016.40E+004.46E+01-6.98E+014.08E+040.00E+000.00E+001.97E+014.38E+054.94E+06
-9.21E-011757.556/24/2008#NAME?1.59E+094.53E+022.16E+016.40E+017.75E+001.54E+019.21E-016.14E+001.72E+011.55E+020.00E+006.40E+004.46E+01-6.98E+014.08E+040.00E+000.00E+001.97E+014.38E+054.94E+06
-9.62E-011757.636/24/2008#NAME?1.59E+094.58E+022.14E+016.90E+017.80E+001.55E+019.62E-016.16E+001.62E+011.55E+026.00E-016.40E+004.46E+01-6.98E+014.08E+040.00E+000.00E+001.97E+014.38E+054.94E+06
-1.02E+001757.726/24/2008#NAME?1.59E+094.63E+022.13E+016.60E+017.78E+001.55E+011.02E+006.14E+001.72E+011.56E+023.00E-016.40E+004.46E+01-6.98E+014.08E+040.00E+000.00E+001.97E+014.38E+054.94E+06
-1.08E+001757.806/24/2008#NAME?1.59E+094.68E+022.13E+016.60E+017.73E+001.56E+011.08E+006.14E+001.71E+011.56E+022.00E-016.40E+004.46E+01-6.98E+014.08E+040.00E+000.00E+001.97E+014.38E+054.94E+06
-1.14E+001757.886/24/2008#NAME?1.59E+094.73E+022.12E+016.40E+017.66E+001.57E+011.14E+006.17E+001.57E+011.56E+021.10E+006.30E+004.46E+01-6.98E+014.08E+040.00E+000.00E+001.97E+014.38E+054.94E+06
-1.21E+001757.976/24/2008#NAME?1.59E+094.78E+022.12E+016.50E+017.69E+001.58E+011.21E+006.15E+001.69E+011.56E+021.00E+006.40E+004.46E+01-6.98E+014.08E+040.00E+000.00E+001.97E+014.38E+054.94E+06
-1.31E+001758.056/24/2008#NAME?1.59E+094.83E+022.12E+016.90E+017.62E+001.59E+011.31E+006.15E+001.68E+011.57E+021.00E+006.40E+004.46E+01-6.98E+014.08E+040.00E+000.00E+001.97E+014.38E+054.94E+06
-1.40E+001758.136/24/2008#NAME?1.59E+094.88E+022.12E+016.40E+017.58E+001.61E+011.40E+006.16E+001.62E+011.56E+027.00E-016.30E+004.46E+01-6.98E+014.08E+040.00E+000.00E+001.97E+014.38E+054.94E+06
-1.48E+001758.226/24/2008#NAME?1.59E+094.93E+022.12E+016.70E+017.54E+001.62E+011.48E+006.16E+001.61E+011.56E+028.00E-016.30E+004.46E+01-6.98E+014.08E+040.00E+000.00E+001.97E+014.38E+054.94E+06
-1.56E+001758.306/24/2008#NAME?1.59E+094.98E+022.12E+016.00E+017.58E+001.63E+011.56E+006.18E+001.53E+011.56E+027.00E-016.40E+004.46E+01-6.98E+014.09E+040.00E+000.00E+001.97E+014.38E+054.94E+06
-1.64E+001758.386/24/2008#NAME?1.59E+095.03E+022.12E+016.60E+017.51E+001.64E+011.64E+006.17E+001.57E+011.56E+021.10E+006.40E+004.46E+01-6.98E+014.09E+040.00E+000.00E+001.97E+014.38E+054.94E+06
-1.71E+001758.476/24/2008#NAME?1.59E+095.08E+022.12E+016.30E+017.49E+001.65E+011.71E+006.17E+001.58E+011.56E+027.00E-016.30E+004.46E+01-6.98E+014.09E+040.00E+000.00E+001.97E+014.38E+054.94E+06
-1.77E+001758.556/24/2008#NAME?1.59E+095.13E+022.11E+016.60E+017.49E+001.66E+011.77E+006.21E+001.38E+011.55E+028.00E-016.40E+004.46E+01-6.98E+014.09E+040.00E+000.00E+001.97E+014.38E+054.94E+06
-1.83E+001758.636/24/2008#NAME?1.59E+095.18E+022.11E+016.50E+017.49E+001.67E+011.83E+006.20E+001.45E+011.55E+028.00E-016.40E+004.46E+01-6.98E+014.09E+040.00E+000.00E+001.97E+014.38E+054.94E+06
-1.90E+001758.726/24/2008#NAME?1.59E+095.23E+022.11E+016.50E+017.39E+001.68E+011.90E+006.19E+001.47E+011.56E+021.50E+006.40E+004.46E+01-6.98E+014.09E+040.00E+000.00E+001.97E+014.38E+054.94E+06
-1.97E+001758.806/24/2008#NAME?1.59E+095.28E+022.10E+016.70E+017.43E+001.69E+011.97E+006.20E+001.43E+011.56E+027.00E-016.40E+004.46E+01-6.98E+014.09E+040.00E+000.00E+001.97E+014.38E+054.94E+06
-2.03E+001758.886/24/2008#NAME?1.59E+095.33E+022.09E+016.50E+017.38E+001.70E+012.03E+006.20E+001.43E+011.55E+029.00E-016.40E+004.46E+01-6.98E+014.09E+040.00E+000.00E+001.97E+014.38E+054.94E+06
-2.13E+001758.976/24/2008#NAME?1.59E+095.38E+022.08E+016.10E+017.36E+001.71E+012.13E+006.20E+001.42E+011.55E+025.00E-016.30E+004.46E+01-6.98E+014.09E+040.00E+000.00E+001.97E+014.38E+054.94E+06
-2.20E+001759.056/24/2008#NAME?1.59E+095.43E+022.08E+016.40E+017.33E+001.72E+012.20E+006.20E+001.44E+011.55E+021.40E+006.40E+004.46E+01-6.98E+014.09E+040.00E+000.00E+001.97E+014.38E+054.94E+06
-2.27E+001759.136/24/2008#NAME?1.59E+095.48E+022.07E+016.90E+017.22E+001.73E+012.27E+006.20E+001.44E+011.54E+021.90E+006.30E+004.46E+01-6.98E+014.09E+040.00E+000.00E+001.98E+014.38E+054.94E+06
-2.33E+001759.226/24/2008#NAME?1.59E+095.53E+022.07E+016.50E+017.22E+001.74E+012.33E+006.21E+001.41E+011.53E+021.90E+006.40E+004.46E+01-6.98E+014.09E+040.00E+000.00E+001.98E+014.38E+054.94E+06
-2.40E+001759.306/24/2008#NAME?1.59E+095.58E+022.06E+016.10E+017.24E+001.75E+012.40E+006.20E+001.45E+011.52E+022.10E+006.50E+004.46E+01-6.98E+014.09E+040.00E+000.00E+001.98E+014.38E+054.94E+06
-2.48E+001759.386/24/2008#NAME?1.59E+095.63E+022.06E+016.30E+017.24E+001.76E+012.48E+006.19E+001.46E+011.52E+022.00E+006.40E+004.46E+01-6.98E+014.09E+040.00E+000.00E+001.98E+014.38E+054.94E+06
-2.55E+001759.476/24/2008#NAME?1.59E+095.68E+022.06E+016.30E+017.21E+001.77E+012.55E+006.19E+001.49E+011.52E+021.50E+006.40E+004.46E+01-6.98E+014.09E+040.00E+000.00E+001.98E+014.38E+054.94E+06
-2.62E+001759.556/24/2008#NAME?1.59E+095.73E+022.05E+016.40E+017.18E+001.78E+012.62E+006.21E+001.39E+011.51E+021.20E+006.40E+004.46E+01-6.98E+014.09E+040.00E+000.00E+001.97E+014.38E+054.94E+06
-2.70E+001759.636/24/2008#NAME?1.59E+095.78E+022.05E+016.30E+017.13E+001.79E+012.70E+006.21E+001.38E+011.50E+025.00E-016.40E+004.46E+01-6.98E+014.09E+040.00E+000.00E+001.97E+014.38E+054.94E+06
-2.77E+001759.726/24/2008#NAME?1.59E+095.83E+022.05E+016.40E+017.19E+001.80E+012.77E+006.22E+001.35E+011.50E+026.00E-016.30E+004.46E+01-6.98E+014.09E+040.00E+000.00E+001.97E+014.38E+054.94E+06
-2.84E+001759.806/24/2008#NAME?1.59E+095.88E+022.05E+016.40E+017.12E+001.81E+012.84E+006.22E+001.33E+011.49E+023.00E-016.40E+004.46E+01-6.98E+014.09E+040.00E+000.00E+001.98E+014.38E+054.94E+06
-2.90E+001759.886/24/2008#NAME?1.59E+095.93E+022.05E+016.60E+017.06E+001.82E+012.90E+006.25E+001.22E+011.49E+026.00E-016.40E+004.46E+01-6.98E+014.09E+040.00E+000.00E+001.98E+014.38E+054.94E+06
-2.98E+001759.976/24/2008#NAME?1.59E+095.98E+022.05E+016.10E+017.07E+001.83E+012.98E+006.24E+001.25E+011.48E+028.00E-016.30E+004.46E+01-6.98E+014.10E+040.00E+000.00E+001.98E+014.38E+054.94E+06
-3.04E+0017510.056/24/2008#NAME?1.59E+096.03E+022.05E+016.40E+017.04E+001.84E+013.04E+006.25E+001.22E+011.48E+023.00E-016.40E+004.46E+01-6.98E+014.10E+040.00E+000.00E+001.98E+014.38E+054.94E+06
-3.08E+0017510.136/24/2008#NAME?1.59E+096.08E+022.05E+016.20E+017.04E+001.85E+013.08E+006.25E+001.19E+011.48E+027.00E-016.30E+004.46E+01-6.98E+014.10E+040.00E+000.00E+001.98E+014.38E+054.94E+06
-3.13E+0017510.226/24/2008#NAME?1.59E+096.13E+022.05E+016.30E+017.01E+001.85E+013.13E+006.26E+001.14E+011.46E+021.00E+006.30E+004.46E+01-6.98E+014.10E+040.00E+000.00E+001.98E+014.38E+054.94E+06
-3.18E+0017510.306/24/2008#NAME?1.59E+096.18E+022.05E+016.00E+016.95E+001.86E+013.18E+006.27E+001.12E+011.46E+029.00E-016.40E+004.46E+01-6.98E+014.10E+040.00E+000.00E+001.98E+014.38E+054.94E+06
-3.24E+0017510.386/24/2008#NAME?1.59E+096.23E+022.04E+016.20E+016.89E+001.87E+013.24E+006.26E+001.17E+011.47E+021.40E+006.30E+004.46E+01-6.98E+014.10E+040.00E+000.00E+001.97E+014.38E+054.94E+06
-3.30E+0017510.476/24/2008#NAME?1.59E+096.28E+022.04E+015.90E+016.95E+001.88E+013.30E+006.25E+001.20E+011.47E+021.00E+006.30E+004.46E+01-6.98E+014.10E+040.00E+000.00E+001.97E+014.38E+054.94E+06
-3.36E+0017510.556/24/2008#NAME?1.59E+096.33E+022.04E+016.30E+016.90E+001.88E+013.36E+006.27E+001.10E+011.47E+021.00E+006.30E+004.46E+01-6.98E+014.10E+040.00E+000.00E+001.97E+014.38E+054.94E+06
-3.43E+0017510.636/24/2008#NAME?1.59E+096.38E+022.04E+016.00E+016.94E+001.90E+013.43E+006.29E+001.05E+011.46E+021.00E+006.40E+004.46E+01-6.98E+014.10E+040.00E+000.00E+001.97E+014.38E+054.94E+06
-3.49E+0017510.726/24/2008#NAME?1.59E+096.43E+022.04E+016.40E+016.91E+001.90E+013.49E+006.28E+001.08E+011.47E+021.00E+006.40E+004.46E+01-6.98E+014.10E+040.00E+000.00E+000.00E+004.38E+054.94E+06
-3.53E+0017510.806/24/2008#NAME?1.59E+096.48E+022.04E+016.50E+016.86E+001.91E+013.53E+006.29E+001.02E+011.46E+021.80E+006.40E+004.46E+01-6.98E+014.10E+040.00E+000.00E+001.98E+014.38E+054.94E+06
-3.57E+0017510.886/24/2008#NAME?1.59E+096.53E+022.04E+016.10E+016.84E+001.91E+013.57E+006.30E+009.70E+001.45E+021.70E+006.40E+004.46E+01-6.98E+014.10E+040.00E+000.00E+001.98E+014.38E+054.94E+06
-3.61E+0017510.976/24/2008#NAME?1.59E+096.58E+022.04E+016.20E+016.79E+001.92E+013.61E+006.30E+001.00E+011.45E+021.30E+006.40E+004.46E+01-6.98E+014.10E+040.00E+000.00E+001.98E+014.38E+054.94E+06
-3.65E+0017511.056/24/2008#NAME?1.59E+096.63E+022.04E+016.30E+016.81E+001.93E+013.65E+006.27E+001.10E+011.46E+021.20E+006.40E+004.46E+01-6.98E+014.10E+040.00E+000.00E+001.98E+014.38E+054.94E+06
-3.71E+0017511.136/24/2008#NAME?1.59E+096.68E+022.04E+016.60E+016.78E+001.93E+013.71E+006.27E+001.13E+011.46E+021.30E+006.40E+004.46E+01-6.98E+014.10E+040.00E+000.00E+001.98E+014.38E+054.94E+06
-3.77E+0017511.226/24/2008#NAME?1.59E+096.73E+022.04E+016.50E+016.74E+001.94E+013.77E+006.29E+001.03E+011.45E+021.30E+006.40E+004.46E+01-6.98E+014.10E+040.00E+000.00E+001.98E+014.38E+054.94E+06
-3.84E+0017511.306/24/2008#NAME?1.59E+096.78E+022.04E+016.40E+016.76E+001.95E+013.84E+006.29E+001.01E+011.45E+021.10E+006.30E+004.46E+01-6.98E+014.10E+040.00E+000.00E+001.98E+014.38E+054.94E+06
-3.90E+0017511.386/24/2008#NAME?1.59E+096.83E+022.04E+016.70E+016.69E+001.96E+013.90E+006.28E+001.05E+011.46E+021.40E+006.30E+004.46E+01-6.98E+014.10E+040.00E+000.00E+001.98E+014.38E+054.94E+06
-3.95E+0017511.476/24/2008#NAME?1.59E+096.88E+022.04E+016.40E+016.70E+001.97E+013.95E+006.29E+001.00E+011.46E+021.70E+006.40E+004.46E+01-6.98E+014.10E+040.00E+000.00E+001.98E+014.38E+054.94E+06
-3.99E+0017511.556/24/2008#NAME?1.59E+096.93E+022.04E+016.10E+016.63E+001.97E+013.99E+006.30E+009.60E+001.45E+021.50E+006.40E+004.46E+01-6.98E+014.10E+040.00E+000.00E+001.98E+014.38E+054.94E+06
-4.04E+0017511.636/24/2008#NAME?1.59E+096.98E+022.04E+016.20E+016.61E+001.98E+014.04E+006.31E+009.50E+001.45E+021.70E+006.40E+004.46E+01-6.98E+014.11E+040.00E+000.00E+001.98E+014.38E+054.94E+06
-4.09E+0017511.726/24/2008#NAME?1.59E+097.03E+022.04E+016.10E+016.61E+001.99E+014.09E+006.30E+009.90E+001.45E+029.00E-016.30E+004.46E+01-6.98E+014.11E+040.00E+000.00E+001.98E+014.38E+054.94E+06
-4.14E+0017511.806/24/2008#NAME?1.59E+097.08E+022.04E+016.20E+016.61E+002.00E+014.14E+006.29E+001.03E+011.46E+021.50E+006.40E+004.46E+01-6.98E+014.11E+040.00E+000.00E+001.98E+014.38E+054.94E+06
-4.21E+0017511.886/24/2008#NAME?1.59E+097.13E+022.04E+016.50E+016.52E+002.01E+014.21E+006.30E+009.80E+001.45E+021.60E+006.40E+004.46E+01-6.98E+014.11E+040.00E+000.00E+001.98E+014.38E+054.94E+06
-4.27E+0017511.976/24/2008#NAME?1.59E+097.18E+022.04E+016.10E+016.53E+002.02E+014.27E+006.30E+009.80E+001.45E+021.90E+006.40E+004.46E+01-6.98E+014.11E+040.00E+000.00E+001.98E+014.38E+054.94E+06
-4.35E+0017512.056/24/2008#NAME?1.59E+097.23E+022.04E+016.30E+016.48E+002.03E+014.35E+006.28E+001.07E+011.46E+022.50E+006.40E+004.46E+01-6.98E+014.11E+040.00E+000.00E+001.98E+014.38E+054.94E+06
-4.42E+0017512.136/24/2008#NAME?1.59E+097.28E+022.04E+016.50E+016.46E+002.04E+014.42E+006.28E+001.08E+011.47E+021.90E+006.50E+004.46E+01-6.98E+014.11E+040.00E+000.00E+001.99E+014.38E+054.94E+06
-4.50E+0017512.226/24/2008#NAME?1.59E+097.33E+022.04E+016.40E+016.41E+002.05E+014.50E+006.28E+001.09E+011.47E+021.50E+006.30E+004.46E+01-6.98E+014.11E+040.00E+000.00E+001.99E+014.38E+054.94E+06
-4.58E+0017512.306/24/2008#NAME?1.59E+097.38E+022.03E+016.10E+016.40E+002.06E+014.58E+006.27E+001.12E+011.47E+021.50E+006.40E+004.46E+01-6.98E+014.11E+040.00E+000.00E+001.99E+014.38E+054.94E+06
-4.66E+0017512.386/24/2008#NAME?1.59E+097.43E+022.03E+016.30E+016.37E+002.07E+014.66E+006.25E+001.20E+011.48E+022.80E+006.30E+004.46E+01-6.98E+014.11E+040.00E+000.00E+001.99E+014.38E+054.94E+06
-4.74E+0017512.476/24/2008#NAME?1.59E+097.48E+022.03E+016.20E+016.31E+002.08E+014.74E+006.24E+001.26E+011.49E+022.50E+006.40E+004.46E+01-6.98E+014.11E+040.00E+000.00E+001.99E+014.38E+054.94E+06
-4.81E+0017512.556/24/2008#NAME?1.59E+097.53E+022.02E+016.30E+016.29E+002.09E+014.81E+006.24E+001.26E+011.49E+021.40E+006.40E+004.46E+01-6.98E+014.11E+040.00E+000.00E+001.99E+014.38E+054.94E+06
-4.88E+0017512.636/24/2008#NAME?1.59E+097.58E+022.02E+016.00E+016.23E+002.10E+014.88E+006.25E+001.22E+011.49E+021.40E+006.40E+004.46E+01-6.98E+014.11E+040.00E+000.00E+001.99E+014.38E+054.94E+06
-4.92E+0017512.726/24/2008#NAME?1.59E+097.63E+022.01E+016.10E+016.18E+002.11E+014.92E+006.23E+001.30E+011.49E+021.10E+006.40E+004.46E+01-6.98E+014.11E+040.00E+000.00E+001.99E+014.38E+054.94E+06
-5.00E+0017512.806/24/2008#NAME?1.59E+097.68E+022.01E+016.20E+016.20E+002.12E+015.00E+006.23E+001.31E+011.49E+029.00E-016.30E+004.46E+01-6.98E+014.11E+040.00E+000.00E+001.98E+014.38E+054.94E+06
-5.08E+0017512.886/24/2008#NAME?1.59E+097.73E+022.01E+016.30E+016.13E+002.13E+015.08E+006.22E+001.33E+011.50E+028.00E-016.40E+004.46E+01-6.98E+014.11E+040.00E+000.00E+001.98E+014.38E+054.94E+06
-5.16E+0017512.976/24/2008#NAME?1.59E+097.78E+022.01E+015.80E+016.07E+002.14E+015.16E+006.21E+001.38E+011.50E+021.30E+006.40E+004.46E+01-6.98E+014.11E+040.00E+000.00E+001.98E+014.38E+054.94E+06
-5.23E+0017513.056/24/2008#NAME?1.59E+097.83E+022.01E+016.30E+016.08E+002.15E+015.23E+006.20E+001.43E+011.51E+021.00E+006.40E+004.46E+01-6.98E+014.11E+040.00E+000.00E+001.98E+014.38E+054.94E+06
-5.29E+0017513.136/24/2008#NAME?1.59E+097.88E+022.01E+016.30E+016.06E+002.16E+015.29E+006.20E+001.42E+011.50E+021.60E+006.40E+004.46E+01-6.98E+014.11E+040.00E+000.00E+001.98E+014.38E+054.94E+06
-5.35E+0017513.226/24/2008#NAME?1.59E+097.93E+022.00E+016.10E+016.05E+002.17E+015.35E+006.22E+001.34E+011.50E+021.70E+006.40E+004.46E+01-6.98E+014.11E+040.00E+000.00E+001.98E+014.38E+054.94E+06
-5.41E+0017513.306/24/2008#NAME?1.59E+097.98E+022.00E+016.00E+016.01E+002.18E+015.41E+006.21E+001.37E+011.50E+022.00E+006.30E+004.46E+01-6.98E+014.12E+040.00E+000.00E+001.98E+014.38E+054.94E+06
-5.46E+0017513.386/24/2008#NAME?1.59E+098.03E+022.00E+016.30E+015.96E+002.18E+015.46E+006.19E+001.46E+011.51E+021.60E+006.40E+004.46E+01-6.98E+014.12E+040.00E+000.00E+001.98E+014.38E+054.94E+06
-5.52E+0017513.476/24/2008#NAME?1.59E+098.08E+022.00E+016.20E+015.94E+002.19E+015.52E+006.19E+001.45E+011.51E+029.00E-016.30E+004.46E+01-6.98E+014.12E+040.00E+000.00E+001.98E+014.38E+054.94E+06
-5.58E+0017513.556/24/2008#NAME?1.59E+098.13E+022.00E+016.40E+015.80E+002.20E+015.58E+006.18E+001.52E+011.51E+025.00E-016.40E+004.46E+01-6.98E+014.12E+040.00E+000.00E+001.98E+014.38E+054.94E+06
-5.65E+0017513.636/24/2008#NAME?1.59E+098.18E+021.99E+015.90E+015.73E+002.21E+015.65E+006.17E+001.56E+011.52E+028.00E-016.40E+004.46E+01-6.98E+014.12E+040.00E+000.00E+001.98E+014.38E+054.94E+06
-5.73E+0017513.726/24/2008#NAME?1.59E+098.23E+021.99E+015.90E+015.70E+002.22E+015.73E+006.16E+001.63E+011.53E+027.00E-016.30E+004.46E+01-6.98E+014.12E+040.00E+000.00E+001.98E+014.38E+054.94E+06
-5.80E+0017513.806/24/2008#NAME?1.59E+098.28E+021.99E+016.30E+015.69E+002.23E+015.80E+006.16E+001.63E+011.53E+021.00E+006.30E+004.46E+01-6.98E+014.12E+040.00E+000.00E+001.98E+014.38E+054.94E+06
-5.87E+0017513.886/24/2008#NAME?1.59E+098.33E+021.99E+016.00E+015.67E+002.24E+015.87E+006.17E+001.55E+011.52E+021.00E+006.40E+004.46E+01-6.98E+014.12E+040.00E+000.00E+001.98E+014.38E+054.94E+06
-5.92E+0017513.976/24/2008#NAME?1.59E+098.38E+021.99E+016.00E+015.69E+002.25E+015.92E+006.19E+001.50E+011.51E+028.00E-016.40E+004.46E+01-6.98E+014.12E+040.00E+000.00E+001.98E+014.38E+054.94E+06
-6.00E+0017514.056/24/2008#NAME?1.59E+098.43E+021.98E+016.00E+015.68E+002.26E+016.00E+006.17E+001.55E+011.52E+021.70E+006.40E+004.46E+01-6.98E+014.12E+040.00E+000.00E+001.98E+014.38E+054.94E+06
-6.07E+0017514.136/24/2008#NAME?1.59E+098.48E+021.98E+016.10E+015.67E+002.27E+016.07E+006.18E+001.52E+011.51E+021.30E+006.40E+004.46E+01-6.98E+014.12E+040.00E+000.00E+001.98E+014.38E+054.94E+06
-6.13E+0017514.226/24/2008#NAME?1.59E+098.53E+021.98E+016.20E+015.65E+002.28E+016.13E+006.20E+001.45E+011.51E+021.40E+006.40E+004.46E+01-6.98E+014.12E+040.00E+000.00E+001.98E+014.38E+054.94E+06
-6.20E+0017514.306/24/2008#NAME?1.59E+098.58E+021.97E+015.90E+015.64E+002.29E+016.20E+006.20E+001.44E+011.51E+028.00E-016.40E+004.46E+01-6.98E+014.12E+040.00E+000.00E+001.98E+014.38E+054.94E+06
-6.28E+0017514.386/24/2008#NAME?1.59E+098.63E+021.97E+016.00E+015.61E+002.30E+016.28E+006.18E+001.50E+011.51E+021.50E+006.40E+004.46E+01-6.98E+014.12E+040.00E+000.00E+001.98E+014.38E+054.94E+06
-6.34E+0017514.476/24/2008#NAME?1.59E+098.68E+021.97E+016.10E+015.49E+002.31E+016.34E+006.17E+001.55E+011.52E+021.00E+006.30E+004.46E+01-6.98E+014.12E+040.00E+000.00E+001.98E+014.38E+054.94E+06
-6.40E+0017514.556/24/2008#NAME?1.59E+098.73E+021.97E+016.10E+015.43E+002.32E+016.40E+006.17E+001.55E+011.51E+028.00E-016.40E+004.46E+01-6.98E+014.12E+040.00E+000.00E+001.98E+014.38E+054.94E+06
-6.47E+0017514.636/24/2008#NAME?1.59E+098.78E+021.96E+016.00E+015.39E+002.33E+016.47E+006.17E+001.57E+011.52E+026.00E-016.30E+004.46E+01-6.98E+014.12E+040.00E+000.00E+001.98E+014.38E+054.94E+06
-6.52E+0017514.726/24/2008#NAME?1.59E+098.83E+021.96E+016.20E+015.31E+002.33E+016.52E+006.15E+001.63E+011.52E+021.00E+006.40E+004.46E+01-6.98E+014.12E+040.00E+000.00E+001.98E+014.38E+054.94E+06
-6.56E+0017514.806/24/2008#NAME?1.59E+098.88E+021.96E+016.30E+015.31E+002.34E+016.56E+006.16E+001.61E+011.51E+027.00E-016.30E+004.46E+01-6.98E+014.12E+040.00E+000.00E+001.98E+014.38E+054.94E+06